createdAt,value
2023-03-29T00:01:36.637Z,75.70
2023-03-29T00:06:38.195Z,75.27
2023-03-29T00:11:39.729Z,75.46
2023-03-29T00:16:41.355Z,76.13
2023-03-29T00:21:42.840Z,76.42
2023-03-29T00:26:44.343Z,76.61
2023-03-29T00:31:52.356Z,76.03
2023-03-29T00:36:57.880Z,76.59
2023-03-29T00:41:59.397Z,76.26
2023-03-29T00:47:00.959Z,75.60
2023-03-29T00:52:02.476Z,75.93
2023-03-29T00:57:05.152Z,76.74
2023-03-29T01:02:07.604Z,76.19
2023-03-29T01:07:35.885Z,76.99
2023-03-29T01:12:44.117Z,76.67
2023-03-29T01:17:50.406Z,76.42
2023-03-29T01:23:26.976Z,76.14
2023-03-29T01:28:34.183Z,77.04
2023-03-29T01:33:43.786Z,77.07
2023-03-29T01:38:56.971Z,77.29
2023-03-29T01:44:07.195Z,77.40
2023-03-29T01:49:22.413Z,77.28
2023-03-29T01:54:36.969Z,77.06
2023-03-29T01:59:43.338Z,77.61
2023-03-29T02:04:50.123Z,76.57
2023-03-29T02:09:53.754Z,76.88
2023-03-29T02:14:58.186Z,77.39
2023-03-29T02:20:14.704Z,77.65
2023-03-29T02:25:17.513Z,77.39
2023-03-29T02:30:21.039Z,77.57
2023-03-29T02:35:35.041Z,77.54
2023-03-29T02:40:39.161Z,77.58
2023-03-29T02:45:42.134Z,77.03
2023-03-29T02:50:49.818Z,76.86
2023-03-29T02:55:51.720Z,77.55
2023-03-29T03:00:53.578Z,76.84
2023-03-29T03:05:55.019Z,77.38
2023-03-29T03:10:56.614Z,77.14
2023-03-29T03:15:59.415Z,77.12
2023-03-29T03:21:04.603Z,77.62
2023-03-29T03:26:06.242Z,76.72
2023-03-29T03:31:16.126Z,77.54
2023-03-29T03:36:50.583Z,77.64
2023-03-29T03:41:52.062Z,77.59
2023-03-29T03:46:53.915Z,77.88
2023-03-29T03:51:55.993Z,77.33
2023-03-29T03:56:57.678Z,77.30
2023-03-29T04:02:12.788Z,78.32
2023-03-29T04:07:14.632Z,77.68
2023-03-29T04:12:35.809Z,77.56
2023-03-29T04:17:37.779Z,77.51
2023-03-29T04:22:53.848Z,77.07
2023-03-29T04:27:56.389Z,77.70
2023-03-29T04:33:13.201Z,77.37
2023-03-29T04:38:23.005Z,77.21
2023-03-29T04:43:25.873Z,77.23
2023-03-29T04:48:34.048Z,77.90
2023-03-29T04:53:36.743Z,77.26
2023-03-29T04:58:38.376Z,78.12
2023-03-29T05:03:40.213Z,77.95
2023-03-29T05:08:55.298Z,77.45
2023-03-29T05:14:03.297Z,77.41
2023-03-29T05:19:11.627Z,77.22
2023-03-29T05:24:17.175Z,77.77
2023-03-29T05:29:33.065Z,77.73
2023-03-29T05:34:53.989Z,77.10
2023-03-29T05:40:08.369Z,77.79
2023-03-29T05:45:24.603Z,77.09
2023-03-29T05:50:26.690Z,77.14
2023-03-29T05:55:30.122Z,77.21
2023-03-29T06:00:37.006Z,77.31
2023-03-29T06:06:00.522Z,77.32
2023-03-29T06:11:05.775Z,76.93
2023-03-29T06:16:37.598Z,76.86
2023-03-29T06:21:39.338Z,76.77
2023-03-29T06:26:42.063Z,76.62
2023-03-29T06:31:43.866Z,77.25
2023-03-29T06:37:01.485Z,76.30
2023-03-29T06:42:13.007Z,76.45
2023-03-29T06:47:33.647Z,76.10
2023-03-29T06:52:35.241Z,76.47
2023-03-29T06:57:36.818Z,75.09
2023-03-29T07:02:39.913Z,75.40
2023-03-29T07:08:11.804Z,75.81
2023-03-29T07:13:30.495Z,76.37
2023-03-29T07:18:34.135Z,76.44
2023-03-29T07:23:36.051Z,75.98
2023-03-29T07:28:39.330Z,76.81
2023-03-29T07:33:41.608Z,76.24
2023-03-29T07:38:44.143Z,76.58
2023-03-29T07:43:52.049Z,77.13
2023-03-29T07:48:58.204Z,77.05
2023-03-29T07:54:00.007Z,76.07
2023-03-29T07:59:16.857Z,76.94
2023-03-29T08:04:23.258Z,76.61
2023-03-29T08:09:45.003Z,76.00
2023-03-29T08:14:47.195Z,75.48
2023-03-29T08:19:55.417Z,76.08
2023-03-29T08:24:58.698Z,74.88
2023-03-29T08:30:08.165Z,75.53
2023-03-29T08:35:13.529Z,75.54
2023-03-29T08:40:29.967Z,75.39
2023-03-29T08:45:53.420Z,75.87
2023-03-29T08:51:00.225Z,74.63
2023-03-29T08:56:12.772Z,76.06
2023-03-29T09:01:37.536Z,75.98
2023-03-29T09:06:40.050Z,74.94
2023-03-29T09:12:03.406Z,75.80
2023-03-29T09:17:23.068Z,75.46
2023-03-29T09:22:41.013Z,75.10
2023-03-29T09:28:00.095Z,74.71
2023-03-29T09:33:37.245Z,73.81
2023-03-29T09:38:49.026Z,74.22
2023-03-29T09:43:52.191Z,73.69
2023-03-29T09:48:58.581Z,73.50
2023-03-29T09:54:01.138Z,72.10
2023-03-29T09:59:32.132Z,71.16
2023-03-29T10:04:34.261Z,70.64
2023-03-29T10:09:35.981Z,70.36
2023-03-29T10:14:54.252Z,71.81
2023-03-29T10:20:04.043Z,70.82
2023-03-29T10:25:13.198Z,70.37
2023-03-29T10:30:22.529Z,70.29
2023-03-29T10:35:40.032Z,69.84
2023-03-29T10:41:17.447Z,70.47
2023-03-29T10:46:28.311Z,69.31
2023-03-29T10:51:33.291Z,70.15
2023-03-29T10:56:50.784Z,70.29
2023-03-29T11:01:53.649Z,68.72
2023-03-29T11:07:20.052Z,69.08
2023-03-29T11:12:50.220Z,68.64
2023-03-29T11:17:58.228Z,67.26
2023-03-29T11:23:22.455Z,66.83
2023-03-29T11:28:54.221Z,67.33
2023-03-29T11:34:34.826Z,68.04
2023-03-29T11:40:10.824Z,67.17
2023-03-29T11:45:17.581Z,65.85
2023-03-29T11:50:29.180Z,66.00
2023-03-29T11:55:37.695Z,67.59
2023-03-29T12:00:46.692Z,67.89
2023-03-29T12:06:22.352Z,69.49
2023-03-29T12:11:36.244Z,62.65
2023-03-29T12:17:15.936Z,63.07
2023-03-29T12:22:22.332Z,65.12
2023-03-29T12:27:39.511Z,64.81
2023-03-29T12:33:21.590Z,69.35
2023-03-29T12:38:31.142Z,66.58
2023-03-29T12:43:51.562Z,69.16
2023-03-29T12:49:31.803Z,70.51
2023-03-29T12:54:33.785Z,69.18
2023-03-29T12:59:47.727Z,71.38
2023-03-29T13:04:53.704Z,72.68
2023-03-29T13:09:58.074Z,63.98
2023-03-29T13:15:02.807Z,70.59
2023-03-29T13:20:37.248Z,68.36
2023-03-29T13:26:00.624Z,64.83
2023-03-29T13:31:12.302Z,69.02
2023-03-29T13:36:24.946Z,72.47
2023-03-29T13:41:28.912Z,72.49
2023-03-29T13:46:41.897Z,71.11
2023-03-29T13:52:09.224Z,74.57
2023-03-29T13:57:24.754Z,74.74
2023-03-29T14:02:43.598Z,67.36
2023-03-29T14:07:50.034Z,70.59
2023-03-29T14:12:53.597Z,70.37
2023-03-29T14:17:58.993Z,68.12
2023-03-29T14:23:09.945Z,72.77
2023-03-29T14:28:26.253Z,70.16
2023-03-29T14:33:37.923Z,69.51
2023-03-29T14:38:39.921Z,69.19
2023-03-29T14:43:41.523Z,67.82
2023-03-29T14:48:43.423Z,66.82
2023-03-29T14:53:45.999Z,65.92
2023-03-29T14:58:47.647Z,71.31
2023-03-29T15:03:56.895Z,71.79
2023-03-29T15:09:06.236Z,72.22
2023-03-29T15:14:15.517Z,71.04
2023-03-29T15:19:19.662Z,72.16
2023-03-29T15:24:30.639Z,73.50
2023-03-29T15:29:42.069Z,73.63
2023-03-29T15:34:43.588Z,72.25
2023-03-29T15:39:44.989Z,71.27
2023-03-29T15:44:46.631Z,69.95
2023-03-29T15:49:48.119Z,69.88
2023-03-29T15:54:49.508Z,70.91
2023-03-29T15:59:51.004Z,72.58
2023-03-29T16:04:53.406Z,71.88
2023-03-29T16:09:54.893Z,71.80
2023-03-29T16:14:56.282Z,72.09
2023-03-29T16:19:57.807Z,71.11
2023-03-29T16:24:59.441Z,71.76
2023-03-29T16:30:01.143Z,72.65
2023-03-29T16:35:04.531Z,71.95
2023-03-29T16:40:07.753Z,73.11
2023-03-29T16:45:13.904Z,72.14
2023-03-29T16:50:18.886Z,72.05
2023-03-29T16:55:20.493Z,72.32
2023-03-29T17:00:21.928Z,72.80
2023-03-29T17:05:23.407Z,73.31
2023-03-29T17:10:25.439Z,72.57
2023-03-29T17:15:26.974Z,72.00
2023-03-29T17:20:28.772Z,72.05
2023-03-29T17:25:30.251Z,72.16
2023-03-29T17:30:33.191Z,71.77
2023-03-29T17:35:35.078Z,72.20
2023-03-29T17:40:36.610Z,71.55
2023-03-29T17:45:38.167Z,71.43
2023-03-29T17:50:39.546Z,70.85
2023-03-29T17:55:41.061Z,70.52
2023-03-29T18:00:42.559Z,70.83
2023-03-29T18:05:44.042Z,70.83
2023-03-29T18:10:45.411Z,70.37
2023-03-29T18:15:47.507Z,71.54
2023-03-29T18:20:48.993Z,70.63
2023-03-29T18:25:50.662Z,70.44
2023-03-29T18:30:52.387Z,69.95
2023-03-29T18:35:53.892Z,71.11
2023-03-29T18:40:55.456Z,71.79
2023-03-29T18:45:57.458Z,71.98
2023-03-29T18:50:58.961Z,72.12
2023-03-29T18:56:01.332Z,71.84
2023-03-29T19:01:05.362Z,72.46
2023-03-29T19:06:07.910Z,72.33
2023-03-29T19:11:11.480Z,72.33
2023-03-29T19:16:12.989Z,73.44
2023-03-29T19:21:14.504Z,72.87
2023-03-29T19:26:15.940Z,72.68
2023-03-29T19:31:17.475Z,73.47
2023-03-29T19:36:18.959Z,72.79
2023-03-29T19:41:20.836Z,72.95
2023-03-29T19:46:22.905Z,72.96
2023-03-29T19:51:26.769Z,72.88
2023-03-29T19:56:28.260Z,73.83
2023-03-29T20:01:32.770Z,73.46
2023-03-29T20:06:34.784Z,72.99
2023-03-29T20:11:36.424Z,73.02
2023-03-29T20:16:44.813Z,73.82
2023-03-29T20:21:46.507Z,73.67
2023-03-29T20:26:48.328Z,73.47
2023-03-29T20:31:49.826Z,72.74
2023-03-29T20:36:55.159Z,72.97
2023-03-29T20:41:57.423Z,73.49
2023-03-29T20:47:05.063Z,73.44
2023-03-29T20:52:10.623Z,74.63
2023-03-29T20:57:19.047Z,73.49
2023-03-29T21:02:22.784Z,75.20
2023-03-29T21:07:24.407Z,73.73
2023-03-29T21:12:25.900Z,74.10
2023-03-29T21:17:27.911Z,73.79
2023-03-29T21:22:29.543Z,72.95
2023-03-29T21:27:31.066Z,72.90
2023-03-29T21:32:32.632Z,73.16
2023-03-29T21:37:34.032Z,72.83
2023-03-29T21:42:35.490Z,72.38
2023-03-29T21:47:37.000Z,72.84
2023-03-29T21:52:38.581Z,73.95
2023-03-29T21:57:40.665Z,74.66
2023-03-29T22:02:42.625Z,73.64
2023-03-29T22:07:44.195Z,74.52
2023-03-29T22:12:45.716Z,74.85
2023-03-29T22:17:47.875Z,74.06
2023-03-29T22:22:50.711Z,73.30
2023-03-29T22:27:52.247Z,73.71
2023-03-29T22:32:53.741Z,74.07
2023-03-29T22:37:55.273Z,74.60
2023-03-29T22:42:57.067Z,75.03
2023-03-29T22:47:58.541Z,73.99
2023-03-29T22:53:00.018Z,74.30
2023-03-29T22:58:01.517Z,74.68
2023-03-29T23:03:03.096Z,74.29
2023-03-29T23:08:04.714Z,74.90
2023-03-29T23:13:08.808Z,74.27
2023-03-29T23:18:13.084Z,74.80
2023-03-29T23:23:16.535Z,74.02
2023-03-29T23:28:21.542Z,73.46
2023-03-29T23:33:25.608Z,74.35
2023-03-29T23:38:27.761Z,74.80
2023-03-29T23:43:32.673Z,73.85
2023-03-29T23:48:34.729Z,74.84
2023-03-29T23:53:36.643Z,74.55
2023-03-29T23:58:38.140Z,73.41
